Time;durP1;ratioP1;P1;durP2;ratioP2;P2;SDS_P1;SDS_P2;PMS_P1;PMS_P2;Temp;Humidity;BMP_temperature;BMP_pressure;BME280_temperature;BME280_humidity;BME280_pressure;Samples;Min_cycle;Max_cycle;Signal;HPM_P1;HPM_P2
2023/09/16 00:00:19;;;;;;;22.50;19.23;;;;;;;;;;5007732;28;20204;-80
2023/09/16 00:02:48;;;;;;;23.08;18.52;;;;;;;;;;5017257;28;20238;-80
2023/09/16 00:05:17;;;;;;;23.95;18.80;;;;;;;;;;5007277;28;20254;-80
2023/09/16 00:07:45;;;;;;;23.05;19.05;;;;;;;;;;5017108;28;20242;-81
2023/09/16 00:10:12;;;;;;;22.38;18.70;;;;;;;;;;4997911;28;20211;-79
2023/09/16 00:12:39;;;;;;;22.55;18.40;;;;;;;;;;5016494;28;20239;-78
2023/09/16 00:15:07;;;;;;;23.10;19.58;;;;;;;;;;5003818;28;20260;-79
2023/09/16 00:17:34;;;;;;;22.02;18.77;;;;;;;;;;5014004;28;20307;-80
2023/09/16 00:20:09;;;;;;;22.38;17.48;;;;;;;;;;5016759;28;20271;-80
2023/09/16 00:22:37;;;;;;;19.85;16.38;;;;;;;;;;4999406;28;20277;-81
2023/09/16 00:25:04;;;;;;;20.48;17.35;;;;;;;;;;5016311;28;20208;-79
2023/09/16 00:27:31;;;;;;;20.88;17.65;;;;;;;;;;5009938;28;20682;-80
2023/09/16 00:29:59;;;;;;;22.15;19.10;;;;;;;;;;5006971;28;20669;-80
2023/09/16 00:32:28;;;;;;;22.30;19.15;;;;;;;;;;5006278;28;20238;-79
2023/09/16 00:34:55;;;;;;;22.00;18.73;;;;;;;;;;4989939;28;20207;-80
2023/09/16 00:37:22;;;;;;;21.90;18.30;;;;;;;;;;4998664;28;20206;-80
2023/09/16 00:39:50;;;;;;;19.42;17.08;;;;;;;;;;5011244;28;20215;-80
2023/09/16 00:42:17;;;;;;;21.23;16.95;;;;;;;;;;4994439;28;20703;-80
2023/09/16 00:44:46;;;;;;;23.38;18.20;;;;;;;;;;5006891;28;20656;-81
2023/09/16 00:47:13;;;;;;;20.95;17.60;;;;;;;;;;5015969;28;20211;-81
2023/09/16 00:49:41;;;;;;;21.38;18.58;;;;;;;;;;4994928;28;20242;-79
2023/09/16 00:52:09;;;;;;;20.63;17.38;;;;;;;;;;4997976;28;20231;-80
2023/09/16 00:54:36;;;;;;;17.92;15.77;;;;;;;;;;5015530;28;20200;-78
2023/09/16 00:57:04;;;;;;;18.73;15.95;;;;;;;;;;4998189;28;20204;-79
2023/09/16 00:59:32;;;;;;;22.42;17.17;;;;;;;;;;5013078;28;20234;-79
2023/09/16 01:02:00;;;;;;;20.73;17.40;;;;;;;;;;5012301;28;20610;-80
2023/09/16 01:04:28;;;;;;;21.95;17.98;;;;;;;;;;5012201;28;20489;-80
2023/09/16 01:06:55;;;;;;;22.42;18.20;;;;;;;;;;5009422;28;20251;-81
2023/09/16 01:09:23;;;;;;;19.50;16.73;;;;;;;;;;5000039;28;20287;-80
2023/09/16 01:11:50;;;;;;;19.55;15.77;;;;;;;;;;4984668;28;20223;-79
2023/09/16 01:14:18;;;;;;;21.15;15.70;;;;;;;;;;4997865;28;20215;-79
2023/09/16 01:17:11;;;;;;;19.05;16.25;;;;;;;;;;5011723;28;20211;-80
2023/09/16 01:19:45;;;;;;;18.80;15.98;;;;;;;;;;5003008;28;20207;-78
2023/09/16 01:22:12;;;;;;;16.77;15.02;;;;;;;;;;5008134;28;20687;-81
2023/09/16 01:24:40;;;;;;;15.60;13.90;;;;;;;;;;5007651;28;20211;-79
2023/09/16 01:27:08;;;;;;;17.70;15.80;;;;;;;;;;5010770;28;20230;-81
2023/09/16 01:29:35;;;;;;;17.10;15.15;;;;;;;;;;5011349;28;20215;-79
2023/09/16 01:32:05;;;;;;;20.63;16.08;;;;;;;;;;5011941;28;20234;-80
2023/09/16 01:34:52;;;;;;;17.83;14.73;;;;;;;;;;5015692;28;20265;-78
2023/09/16 01:37:22;;;;;;;19.00;15.80;;;;;;;;;;5000616;28;20203;-80
2023/09/16 01:39:51;;;;;;;21.67;17.73;;;;;;;;;;5006850;28;20263;-80
2023/09/16 01:42:18;;;;;;;21.52;17.90;;;;;;;;;;5000472;28;20318;-80
2023/09/16 01:44:48;;;;;;;19.73;17.58;;;;;;;;;;5011716;28;20216;-78
2023/09/16 01:47:15;;;;;;;21.40;17.25;;;;;;;;;;5006584;28;20219;-78
2023/09/16 01:49:42;;;;;;;19.98;17.75;;;;;;;;;;5014454;28;20493;-80
2023/09/16 01:52:10;;;;;;;22.55;17.02;;;;;;;;;;5013810;28;20235;-79
2023/09/16 01:54:37;;;;;;;19.10;16.63;;;;;;;;;;5011404;28;20227;-80
2023/09/16 01:57:04;;;;;;;21.40;16.52;;;;;;;;;;5007652;28;20195;-79
2023/09/16 01:59:31;;;;;;;20.08;16.52;;;;;;;;;;5010916;28;20199;-78
2023/09/16 02:01:59;;;;;;;22.55;18.00;;;;;;;;;;5009396;28;20261;-78
2023/09/16 02:04:26;;;;;;;20.70;17.05;;;;;;;;;;5008756;28;20265;-80
2023/09/16 02:06:53;;;;;;;19.52;16.25;;;;;;;;;;4993205;28;20209;-79
2023/09/16 02:09:21;;;;;;;19.90;15.57;;;;;;;;;;5008327;28;20208;-79
2023/09/16 02:11:48;;;;;;;18.98;15.70;;;;;;;;;;4990530;28;20250;-80
2023/09/16 02:14:16;;;;;;;19.83;16.45;;;;;;;;;;5008899;28;20211;-77
2023/09/16 02:16:47;;;;;;;19.60;16.55;;;;;;;;;;5011276;28;20218;-80
2023/09/16 02:19:14;;;;;;;16.52;14.70;;;;;;;;;;5007921;28;20211;-80
2023/09/16 02:21:41;;;;;;;11.57;10.38;;;;;;;;;;5006764;28;20245;-79
2023/09/16 02:24:09;;;;;;;34.70;11.80;;;;;;;;;;4994631;28;20306;-79
2023/09/16 02:26:36;;;;;;;14.38;11.77;;;;;;;;;;5007612;28;20836;-80
2023/09/16 02:29:03;;;;;;;13.45;12.15;;;;;;;;;;5006544;28;20196;-80
2023/09/16 02:31:31;;;;;;;14.15;12.75;;;;;;;;;;5008698;28;20285;-77
2023/09/16 02:33:59;;;;;;;15.70;14.00;;;;;;;;;;5013527;28;20215;-79
2023/09/16 02:36:27;;;;;;;15.55;13.85;;;;;;;;;;5008552;28;20659;-80
2023/09/16 02:38:54;;;;;;;17.77;15.93;;;;;;;;;;5009410;28;20231;-78
2023/09/16 02:41:21;;;;;;;18.48;16.23;;;;;;;;;;5008732;28;20238;-77
2023/09/16 02:43:52;;;;;;;19.52;16.75;;;;;;;;;;4991968;28;20195;-79
2023/09/16 02:46:19;;;;;;;21.17;18.73;;;;;;;;;;5006742;28;20218;-77
2023/09/16 02:48:46;;;;;;;23.33;19.00;;;;;;;;;;5009748;28;20230;-79
2023/09/16 02:51:14;;;;;;;25.15;20.95;;;;;;;;;;5010456;28;20207;-80
2023/09/16 02:53:43;;;;;;;26.40;21.55;;;;;;;;;;5008503;28;20286;-78
2023/09/16 02:56:11;;;;;;;25.65;20.52;;;;;;;;;;5007351;28;20208;-80
2023/09/16 02:58:38;;;;;;;24.00;19.30;;;;;;;;;;5008690;28;20896;-78
2023/09/16 03:01:11;;;;;;;24.42;18.98;;;;;;;;;;5009559;28;20211;-78
2023/09/16 03:03:40;;;;;;;19.77;17.10;;;;;;;;;;4993065;28;20219;-79
2023/09/16 03:06:07;;;;;;;21.02;18.17;;;;;;;;;;4991153;28;20211;-80
2023/09/16 03:08:34;;;;;;;18.95;16.65;;;;;;;;;;5009858;28;20221;-80
2023/09/16 03:11:03;;;;;;;21.20;18.13;;;;;;;;;;4995605;28;20212;-81
2023/09/16 03:13:30;;;;;;;21.90;18.65;;;;;;;;;;5013064;28;20676;-78
2023/09/16 03:16:17;;;;;;;19.77;17.55;;;;;;;;;;5011574;28;20206;-78
2023/09/16 03:18:45;;;;;;;21.65;17.60;;;;;;;;;;5014468;28;20253;-80
2023/09/16 03:21:13;;;;;;;19.23;16.55;;;;;;;;;;4995520;28;20210;-79
2023/09/16 03:23:41;;;;;;;17.58;15.65;;;;;;;;;;5011779;28;20616;-78
2023/09/16 03:26:09;;;;;;;17.77;15.38;;;;;;;;;;4996672;28;20686;-80
2023/09/16 03:28:38;;;;;;;18.52;16.15;;;;;;;;;;4991660;28;20286;-80
2023/09/16 03:31:05;;;;;;;19.73;16.60;;;;;;;;;;5013410;28;20580;-77
2023/09/16 03:33:33;;;;;;;20.10;16.90;;;;;;;;;;5012370;28;20794;-79
2023/09/16 03:36:00;;;;;;;20.67;17.77;;;;;;;;;;5011201;28;20212;-78
2023/09/16 03:38:29;;;;;;;19.70;17.48;;;;;;;;;;5010745;28;20651;-78
2023/09/16 03:40:57;;;;;;;21.40;18.60;;;;;;;;;;5010635;28;20274;-77
2023/09/16 03:43:25;;;;;;;18.05;16.15;;;;;;;;;;5008683;28;20235;-77
2023/09/16 03:45:52;;;;;;;17.90;16.02;;;;;;;;;;5009633;28;20216;-77
2023/09/16 03:48:20;;;;;;;18.33;15.98;;;;;;;;;;5008943;28;20303;-78
2023/09/16 03:50:47;;;;;;;18.58;16.10;;;;;;;;;;5011489;28;20226;-78
2023/09/16 03:53:14;;;;;;;17.85;15.73;;;;;;;;;;5010867;28;20239;-79
2023/09/16 03:55:47;;;;;;;22.25;18.27;;;;;;;;;;4996069;28;20200;-79
2023/09/16 03:58:14;;;;;;;24.98;19.65;;;;;;;;;;5012705;28;20706;-79
2023/09/16 04:00:42;;;;;;;21.15;17.45;;;;;;;;;;5013374;28;20209;-79
2023/09/16 04:03:09;;;;;;;20.25;17.90;;;;;;;;;;5015561;28;20742;-78
2023/09/16 04:05:37;;;;;;;22.30;18.00;;;;;;;;;;5013911;28;20211;-78
2023/09/16 04:08:04;;;;;;;51.47;16.67;;;;;;;;;;5006521;28;20206;-79
2023/09/16 04:10:31;;;;;;;32.70;18.00;;;;;;;;;;5010742;28;20644;-79
2023/09/16 04:12:59;;;;;;;28.67;18.20;;;;;;;;;;5012036;28;20684;-80
2023/09/16 04:15:26;;;;;;;31.38;18.73;;;;;;;;;;5016871;28;20261;-81
2023/09/16 04:17:53;;;;;;;24.88;17.35;;;;;;;;;;5010802;28;20203;-78
2023/09/16 04:20:20;;;;;;;35.47;17.65;;;;;;;;;;4994023;28;20207;-80
2023/09/16 04:22:49;;;;;;;21.38;15.75;;;;;;;;;;5012702;28;20246;-79
2023/09/16 04:25:16;;;;;;;26.42;16.90;;;;;;;;;;5012139;28;20219;-79
2023/09/16 04:27:44;;;;;;;40.22;17.75;;;;;;;;;;4996368;28;20257;-78
2023/09/16 04:30:11;;;;;;;24.48;16.52;;;;;;;;;;5007372;28;20208;-80
2023/09/16 04:32:40;;;;;;;16.87;15.07;;;;;;;;;;5011610;28;20370;-81
2023/09/16 04:35:08;;;;;;;18.80;15.38;;;;;;;;;;5005080;28;20208;-78
2023/09/16 04:37:36;;;;;;;29.27;16.65;;;;;;;;;;5014485;28;20690;-79
2023/09/16 04:40:12;;;;;;;19.05;15.82;;;;;;;;;;5012170;28;20219;-80
2023/09/16 04:42:39;;;;;;;16.30;14.60;;;;;;;;;;4993221;28;20231;-77
2023/09/16 04:45:07;;;;;;;14.80;13.13;;;;;;;;;;5006546;28;20566;-79
2023/09/16 04:47:34;;;;;;;18.37;13.13;;;;;;;;;;5011623;28;20719;-79
2023/09/16 04:50:01;;;;;;;15.93;11.57;;;;;;;;;;5010151;28;20683;-78
2023/09/16 04:52:29;;;;;;;13.07;11.63;;;;;;;;;;5011506;28;20406;-80
2023/09/16 04:54:56;;;;;;;11.75;9.57;;;;;;;;;;5006766;28;20196;-80
2023/09/16 04:57:23;;;;;;;14.27;11.57;;;;;;;;;;5011663;28;20234;-80
2023/09/16 04:59:51;;;;;;;19.03;11.83;;;;;;;;;;4996094;28;20203;-79
2023/09/16 05:02:18;;;;;;;14.88;13.32;;;;;;;;;;5014707;28;20231;-79
2023/09/16 05:04:45;;;;;;;24.70;15.50;;;;;;;;;;5011520;28;20203;-79
2023/09/16 05:07:12;;;;;;;15.20;13.48;;;;;;;;;;5012080;28;20203;-79
2023/09/16 05:09:40;;;;;;;15.55;14.02;;;;;;;;;;5011645;28;20203;-80
2023/09/16 05:12:07;;;;;;;14.07;12.77;;;;;;;;;;5004842;28;20742;-78
2023/09/16 05:14:34;;;;;;;13.90;12.63;;;;;;;;;;5011040;28;20224;-77
2023/09/16 05:17:02;;;;;;;11.77;10.77;;;;;;;;;;5011336;28;20207;-80
2023/09/16 05:19:31;;;;;;;12.60;11.40;;;;;;;;;;5009385;28;20199;-80
2023/09/16 05:21:58;;;;;;;12.07;10.97;;;;;;;;;;5010870;28;20216;-78
2023/09/16 05:24:25;;;;;;;11.75;10.65;;;;;;;;;;5012449;28;20239;-79
2023/09/16 05:26:54;;;;;;;11.57;10.57;;;;;;;;;;5008928;28;20358;-81
2023/09/16 05:29:22;;;;;;;11.73;10.52;;;;;;;;;;4989280;28;20238;-79
2023/09/16 05:31:49;;;;;;;12.73;11.38;;;;;;;;;;5012689;28;20239;-79
2023/09/16 05:34:17;;;;;;;13.25;12.07;;;;;;;;;;4994028;28;20314;-77
2023/09/16 05:36:44;;;;;;;11.70;10.70;;;;;;;;;;5010227;28;20211;-77
2023/09/16 05:39:11;;;;;;;11.40;10.40;;;;;;;;;;4995792;28;20618;-80
2023/09/16 05:41:40;;;;;;;13.27;12.07;;;;;;;;;;5010013;28;20223;-80
2023/09/16 05:44:07;;;;;;;12.63;11.52;;;;;;;;;;5006037;28;20286;-78
2023/09/16 05:46:34;;;;;;;11.95;10.95;;;;;;;;;;5011374;28;20212;-78
2023/09/16 05:49:09;;;;;;;12.18;11.07;;;;;;;;;;5010880;28;20246;-79
2023/09/16 05:51:37;;;;;;;12.27;11.18;;;;;;;;;;5010562;28;20281;-78
2023/09/16 05:54:05;;;;;;;24.55;12.95;;;;;;;;;;5011215;28;20219;-80
2023/09/16 05:56:32;;;;;;;26.98;12.45;;;;;;;;;;4998600;28;20203;-80
2023/09/16 05:59:00;;;;;;;53.13;13.38;;;;;;;;;;5010074;28;20209;-79
2023/09/16 06:01:27;;;;;;;27.42;13.35;;;;;;;;;;5010832;28;20223;-80
2023/09/16 06:03:55;;;;;;;33.92;12.60;;;;;;;;;;5012439;28;20289;-79
2023/09/16 06:06:22;;;;;;;26.50;12.25;;;;;;;;;;5013538;28;20286;-80
2023/09/16 06:08:51;;;;;;;24.13;13.43;;;;;;;;;;5011344;28;20646;-80
2023/09/16 06:11:18;;;;;;;18.58;14.45;;;;;;;;;;4995031;28;20204;-80
2023/09/16 06:13:46;;;;;;;42.13;15.93;;;;;;;;;;5011207;28;20285;-80
2023/09/16 06:16:13;;;;;;;70.25;16.67;;;;;;;;;;4994329;28;20203;-80
2023/09/16 06:18:41;;;;;;;50.47;16.10;;;;;;;;;;5009700;28;20214;-78
2023/09/16 06:21:09;;;;;;;22.85;14.98;;;;;;;;;;5011770;28;20195;-82
2023/09/16 06:23:36;;;;;;;19.13;15.10;;;;;;;;;;5010218;28;20215;-79
2023/09/16 06:26:03;;;;;;;40.72;16.92;;;;;;;;;;5012447;28;20846;-79
2023/09/16 06:28:33;;;;;;;24.35;16.52;;;;;;;;;;5009957;28;20207;-79
2023/09/16 06:31:00;;;;;;;36.38;16.55;;;;;;;;;;5016603;28;20218;-78
2023/09/16 06:33:27;;;;;;;29.63;16.35;;;;;;;;;;4994026;28;20817;-80
2023/09/16 06:35:55;;;;;;;29.10;15.63;;;;;;;;;;5010771;28;20211;-78
2023/09/16 06:38:22;;;;;;;29.25;15.05;;;;;;;;;;4996473;28;20207;-79
2023/09/16 06:40:49;;;;;;;23.85;14.50;;;;;;;;;;5014935;28;20623;-79
2023/09/16 06:43:16;;;;;;;30.05;15.40;;;;;;;;;;5015743;28;20227;-79
2023/09/16 06:45:44;;;;;;;17.65;13.65;;;;;;;;;;5015282;28;20663;-79
2023/09/16 06:48:11;;;;;;;24.60;15.18;;;;;;;;;;5020031;28;20219;-79
2023/09/16 06:50:39;;;;;;;27.10;15.43;;;;;;;;;;4997702;28;20306;-79
2023/09/16 06:53:07;;;;;;;25.17;14.45;;;;;;;;;;5008878;28;20686;-78
2023/09/16 06:55:34;;;;;;;22.85;15.00;;;;;;;;;;5015776;28;20199;-79
2023/09/16 06:58:04;;;;;;;20.65;15.02;;;;;;;;;;5010785;28;20854;-80
2023/09/16 07:00:31;;;;;;;17.35;14.63;;;;;;;;;;5008327;28;20585;-79
2023/09/16 07:02:58;;;;;;;22.60;15.82;;;;;;;;;;5015197;28;20691;-79
2023/09/16 07:05:29;;;;;;;21.08;15.68;;;;;;;;;;5008063;28;20266;-78
2023/09/16 07:07:58;;;;;;;22.98;15.40;;;;;;;;;;5015053;28;20210;-79
2023/09/16 07:10:26;;;;;;;21.02;15.88;;;;;;;;;;5014992;28;20686;-79
2023/09/16 07:12:53;;;;;;;17.48;15.75;;;;;;;;;;5014594;28;20231;-81
2023/09/16 07:15:20;;;;;;;27.38;18.15;;;;;;;;;;5015052;28;20243;-79
2023/09/16 07:17:48;;;;;;;17.55;15.77;;;;;;;;;;4996103;28;20258;-78
2023/09/16 07:20:15;;;;;;;20.65;16.10;;;;;;;;;;4997743;28;20608;-79
2023/09/16 07:22:43;;;;;;;23.63;16.42;;;;;;;;;;5019725;28;20277;-81
2023/09/16 07:25:10;;;;;;;19.10;17.02;;;;;;;;;;4998284;28;20556;-81
2023/09/16 07:27:37;;;;;;;19.73;16.23;;;;;;;;;;5014252;28;20240;-80
2023/09/16 07:30:05;;;;;;;19.75;17.02;;;;;;;;;;5014283;28;20555;-80
2023/09/16 07:32:32;;;;;;;19.10;17.10;;;;;;;;;;5015138;28;20235;-79
2023/09/16 07:35:00;;;;;;;23.05;16.67;;;;;;;;;;5015348;28;20667;-79
2023/09/16 07:37:27;;;;;;;22.70;17.42;;;;;;;;;;5015374;28;20204;-78
2023/09/16 07:39:54;;;;;;;19.17;17.15;;;;;;;;;;5016387;28;20207;-78
2023/09/16 07:42:22;;;;;;;19.08;17.17;;;;;;;;;;5015830;28;20311;-78
2023/09/16 07:44:49;;;;;;;19.92;17.60;;;;;;;;;;5008376;28;20211;-80
2023/09/16 07:47:16;;;;;;;20.13;16.58;;;;;;;;;;5009411;28;20332;-79
2023/09/16 07:49:44;;;;;;;21.08;18.88;;;;;;;;;;5012743;28;20211;-78
2023/09/16 07:52:11;;;;;;;22.35;19.98;;;;;;;;;;5014770;28;20234;-80
2023/09/16 07:54:38;;;;;;;19.23;17.33;;;;;;;;;;5014778;28;20305;-80
2023/09/16 07:57:06;;;;;;;21.92;19.55;;;;;;;;;;5013176;28;20203;-80
2023/09/16 07:59:33;;;;;;;20.63;18.52;;;;;;;;;;5013758;28;20207;-78
2023/09/16 08:02:03;;;;;;;20.58;18.45;;;;;;;;;;5014935;28;20699;-77
2023/09/16 08:04:31;;;;;;;24.88;22.40;;;;;;;;;;5015307;28;20251;-78
2023/09/16 08:06:58;;;;;;;23.65;20.83;;;;;;;;;;5013648;28;20199;-79
2023/09/16 08:09:26;;;;;;;22.05;19.85;;;;;;;;;;5013569;28;20212;-78
2023/09/16 08:11:53;;;;;;;22.50;20.20;;;;;;;;;;5013263;28;20737;-79
2023/09/16 08:14:21;;;;;;;20.77;18.67;;;;;;;;;;5014121;28;20238;-79
2023/09/16 08:16:48;;;;;;;20.77;18.73;;;;;;;;;;4995582;28;20219;-77
2023/09/16 08:19:17;;;;;;;22.48;20.15;;;;;;;;;;5015938;28;20210;-79
2023/09/16 08:21:50;;;;;;;22.40;20.10;;;;;;;;;;4996048;28;20253;-78
2023/09/16 08:24:17;;;;;;;22.50;20.20;;;;;;;;;;5014368;28;20246;-80
2023/09/16 08:26:44;;;;;;;21.88;19.73;;;;;;;;;;4995259;28;20204;-78
2023/09/16 08:29:11;;;;;;;22.65;20.40;;;;;;;;;;4997698;28;20742;-79
2023/09/16 08:31:39;;;;;;;23.85;21.38;;;;;;;;;;5015463;28;20227;-80
2023/09/16 08:34:06;;;;;;;22.40;20.25;;;;;;;;;;5003902;28;20219;-80
2023/09/16 08:36:33;;;;;;;22.40;20.10;;;;;;;;;;5015261;28;20664;-79
2023/09/16 08:39:01;;;;;;;22.05;19.75;;;;;;;;;;4995626;28;20210;-78
2023/09/16 08:41:38;;;;;;;21.55;19.35;;;;;;;;;;4997732;28;20210;-80
2023/09/16 08:44:06;;;;;;;20.38;18.40;;;;;;;;;;5015666;28;20200;-82
2023/09/16 08:46:34;;;;;;;19.67;17.73;;;;;;;;;;5005807;28;20212;-79
2023/09/16 08:49:04;;;;;;;19.95;17.63;;;;;;;;;;5002027;28;20276;-79
2023/09/16 08:51:33;;;;;;;18.33;16.42;;;;;;;;;;5012937;28;20247;-79
2023/09/16 08:54:01;;;;;;;17.25;15.55;;;;;;;;;;5020081;28;20219;-79
2023/09/16 08:56:29;;;;;;;16.27;14.75;;;;;;;;;;5001247;28;20219;-81
2023/09/16 08:58:56;;;;;;;16.95;15.35;;;;;;;;;;5017517;28;20204;-81
2023/09/16 09:01:24;;;;;;;16.17;14.57;;;;;;;;;;5022694;28;20677;-80
2023/09/16 09:03:53;;;;;;;14.80;13.43;;;;;;;;;;5002573;28;20212;-78
2023/09/16 09:06:21;;;;;;;14.60;13.27;;;;;;;;;;5015141;28;20298;-81
2023/09/16 09:09:06;;;;;;;15.05;13.60;;;;;;;;;;5013360;28;20253;-80
2023/09/16 09:11:34;;;;;;;14.27;12.88;;;;;;;;;;5013927;28;20224;-80
2023/09/16 09:14:03;;;;;;;13.38;11.98;;;;;;;;;;4996716;28;20232;-81
2023/09/16 09:16:31;;;;;;;12.90;11.65;;;;;;;;;;5014113;28;20200;-80
2023/09/16 09:18:58;;;;;;;12.27;10.98;;;;;;;;;;5012529;28;20280;-81
2023/09/16 09:21:25;;;;;;;12.43;10.27;;;;;;;;;;5013973;28;20642;-79
2023/09/16 09:23:53;;;;;;;12.77;10.57;;;;;;;;;;5013152;28;20223;-80
2023/09/16 09:26:20;;;;;;;8.57;7.68;;;;;;;;;;4996905;28;20222;-80
2023/09/16 09:28:48;;;;;;;6.88;6.30;;;;;;;;;;5013554;28;20211;-81
2023/09/16 09:31:16;;;;;;;7.50;6.80;;;;;;;;;;5014883;28;20204;-80
2023/09/16 09:33:48;;;;;;;9.43;7.45;;;;;;;;;;4996766;28;20231;-80
2023/09/16 09:36:16;;;;;;;5.60;5.20;;;;;;;;;;5006610;28;20262;-80
2023/09/16 09:38:47;;;;;;;6.82;6.22;;;;;;;;;;4996882;28;20647;-80
2023/09/16 09:41:15;;;;;;;6.60;5.95;;;;;;;;;;4997701;28;20250;-79
2023/09/16 09:43:43;;;;;;;5.15;4.75;;;;;;;;;;5012903;28;20249;-80
2023/09/16 09:46:11;;;;;;;4.15;3.85;;;;;;;;;;5014534;28;20200;-80
2023/09/16 09:48:40;;;;;;;4.30;4.00;;;;;;;;;;5013414;28;20672;-80
2023/09/16 09:51:11;;;;;;;4.72;4.32;;;;;;;;;;5007556;28;20208;-80
2023/09/16 09:53:38;;;;;;;3.83;3.47;;;;;;;;;;4989780;28;20232;-80
2023/09/16 09:56:12;;;;;;;3.72;3.42;;;;;;;;;;5019145;28;20215;-80
2023/09/16 09:58:40;;;;;;;3.78;3.45;;;;;;;;;;4996455;28;20200;-79
2023/09/16 10:01:08;;;;;;;4.55;3.55;;;;;;;;;;5012757;28;20583;-79
2023/09/16 10:03:35;;;;;;;3.60;3.30;;;;;;;;;;4996169;28;20224;-80
2023/09/16 10:06:19;;;;;;;2.92;2.72;;;;;;;;;;4995447;28;20199;-81
2023/09/16 10:08:47;;;;;;;3.40;3.10;;;;;;;;;;5013022;28;20204;-80
2023/09/16 10:11:17;;;;;;;4.30;3.00;;;;;;;;;;5015717;28;20373;-79
2023/09/16 10:13:44;;;;;;;2.30;2.20;;;;;;;;;;5014085;28;20235;-80
2023/09/16 10:16:12;;;;;;;4.80;2.40;;;;;;;;;;5014042;28;20647;-78
2023/09/16 10:18:39;;;;;;;2.20;2.10;;;;;;;;;;5013599;28;20254;-78
2023/09/16 10:21:07;;;;;;;2.78;2.30;;;;;;;;;;5006579;28;20230;-79
2023/09/16 10:23:35;;;;;;;2.53;2.33;;;;;;;;;;5014121;28;20223;-78
2023/09/16 10:26:03;;;;;;;3.22;3.03;;;;;;;;;;5013533;28;20681;-79
2023/09/16 10:28:32;;;;;;;3.20;3.00;;;;;;;;;;4996240;28;20298;-79
2023/09/16 10:31:00;;;;;;;2.88;2.67;;;;;;;;;;5012449;28;20239;-79
2023/09/16 10:33:27;;;;;;;6.20;2.95;;;;;;;;;;5009386;28;20243;-79
2023/09/16 10:35:56;;;;;;;3.42;2.50;;;;;;;;;;5005717;28;20231;-79
2023/09/16 10:38:24;;;;;;;3.55;2.60;;;;;;;;;;5013538;28;20204;-81
2023/09/16 10:40:54;;;;;;;2.50;2.30;;;;;;;;;;4996355;28;20215;-80
2023/09/16 10:43:22;;;;;;;2.42;2.33;;;;;;;;;;5007246;28;20699;-81
2023/09/16 10:45:49;;;;;;;2.25;2.15;;;;;;;;;;5010267;28;20294;-81
2023/09/16 10:48:16;;;;;;;2.25;2.15;;;;;;;;;;5002446;28;20232;-80
2023/09/16 10:50:47;;;;;;;2.45;2.17;;;;;;;;;;5002220;28;20211;-80
2023/09/16 10:53:24;;;;;;;2.45;2.28;;;;;;;;;;5002537;28;20224;-80
2023/09/16 10:56:04;;;;;;;2.38;2.28;;;;;;;;;;5004228;28;20242;-79
2023/09/16 10:58:32;;;;;;;2.10;2.00;;;;;;;;;;5013167;28;20215;-78
2023/09/16 11:01:06;;;;;;;2.78;2.40;;;;;;;;;;5003155;28;20207;-79
2023/09/16 11:03:35;;;;;;;2.42;2.22;;;;;;;;;;5014354;28;20690;-81
2023/09/16 11:06:02;;;;;;;2.08;1.98;;;;;;;;;;5006044;28;20218;-79
2023/09/16 11:08:29;;;;;;;1.70;1.60;;;;;;;;;;5012004;28;20211;-79
2023/09/16 11:10:57;;;;;;;1.70;1.60;;;;;;;;;;5012990;28;20261;-79
2023/09/16 11:13:28;;;;;;;1.70;1.60;;;;;;;;;;5012110;28;20255;-79
2023/09/16 11:16:02;;;;;;;2.20;2.10;;;;;;;;;;4994109;28;20231;-79
2023/09/16 11:18:29;;;;;;;2.05;1.95;;;;;;;;;;5012167;28;20208;-79
2023/09/16 11:20:57;;;;;;;2.60;2.40;;;;;;;;;;5010579;28;20295;-79
2023/09/16 11:23:25;;;;;;;1.60;1.50;;;;;;;;;;5002040;28;20227;-81
2023/09/16 11:25:57;;;;;;;1.90;1.80;;;;;;;;;;5011364;28;20242;-79
2023/09/16 11:28:25;;;;;;;1.73;1.40;;;;;;;;;;5000198;28;20676;-80
2023/09/16 11:30:56;;;;;;;1.08;1.08;;;;;;;;;;5008899;28;20738;-79
2023/09/16 11:33:28;;;;;;;1.70;1.60;;;;;;;;;;4994254;28;20238;-80
2023/09/16 11:36:15;;;;;;;2.70;1.75;;;;;;;;;;5006445;28;20232;-79
2023/09/16 11:39:01;;;;;;;6.30;2.22;;;;;;;;;;5009661;28;20215;-80
2023/09/16 11:41:28;;;;;;;1.70;1.60;;;;;;;;;;5008071;28;20576;-81
2023/09/16 11:43:56;;;;;;;1.70;1.60;;;;;;;;;;5011500;28;20672;-81
2023/09/16 11:46:25;;;;;;;1.80;1.60;;;;;;;;;;4987152;28;20211;-79
2023/09/16 11:49:15;;;;;;;1.75;1.65;;;;;;;;;;5011093;28;20655;-81
2023/09/16 11:51:42;;;;;;;2.03;1.92;;;;;;;;;;5014632;28;20294;-81
2023/09/16 11:54:10;;;;;;;1.73;1.63;;;;;;;;;;4996779;28;20673;-81
2023/09/16 11:56:40;;;;;;;1.55;1.50;;;;;;;;;;5002052;28;20205;-80
2023/09/16 11:59:07;;;;;;;1.40;1.30;;;;;;;;;;5002772;28;20206;-81
2023/09/16 12:01:36;;;;;;;1.67;1.58;;;;;;;;;;5010295;28;20274;-81
2023/09/16 12:04:04;;;;;;;1.30;1.20;;;;;;;;;;5009474;28;20207;-80
2023/09/16 12:06:34;;;;;;;3.20;2.25;;;;;;;;;;5008229;28;20251;-80
2023/09/16 12:09:03;;;;;;;2.20;2.10;;;;;;;;;;5002983;28;20207;-78
2023/09/16 12:11:31;;;;;;;2.22;2.13;;;;;;;;;;5016133;28;20573;-80
2023/09/16 12:14:00;;;;;;;2.25;2.15;;;;;;;;;;5008150;28;20207;-80
2023/09/16 12:16:28;;;;;;;2.13;2.03;;;;;;;;;;5016226;28;20319;-79
2023/09/16 12:18:56;;;;;;;2.40;2.20;;;;;;;;;;5008293;28;20605;-81
2023/09/16 12:21:23;;;;;;;2.60;2.40;;;;;;;;;;4986341;28;20206;-79
2023/09/16 12:23:51;;;;;;;2.28;2.17;;;;;;;;;;5007700;28;20203;-79
2023/09/16 12:26:19;;;;;;;2.22;2.00;;;;;;;;;;5004356;28;20208;-82
2023/09/16 12:28:47;;;;;;;2.50;2.30;;;;;;;;;;5014830;28;20217;-81
2023/09/16 12:31:20;;;;;;;2.35;2.25;;;;;;;;;;5008952;28;20231;-81
2023/09/16 12:33:53;;;;;;;2.22;2.13;;;;;;;;;;4994025;28;20212;-80
2023/09/16 12:36:24;;;;;;;2.95;2.35;;;;;;;;;;4998188;28;20314;-80
2023/09/16 12:38:53;;;;;;;2.20;2.10;;;;;;;;;;5014964;28;20687;-80
2023/09/16 12:41:21;;;;;;;2.38;2.28;;;;;;;;;;5010990;28;20204;-79
2023/09/16 12:43:49;;;;;;;2.20;2.10;;;;;;;;;;4995636;28;20204;-79
2023/09/16 12:46:20;;;;;;;2.50;2.30;;;;;;;;;;5015354;28;20230;-79
2023/09/16 12:48:49;;;;;;;2.30;2.15;;;;;;;;;;5008878;28;20308;-79
2023/09/16 12:51:20;;;;;;;2.10;2.00;;;;;;;;;;5011615;28;20210;-80
2023/09/16 12:53:51;;;;;;;2.75;2.55;;;;;;;;;;4995590;28;20694;-80
2023/09/16 12:56:18;;;;;;;2.80;2.60;;;;;;;;;;5007985;28;20223;-80
2023/09/16 12:58:48;;;;;;;2.42;2.22;;;;;;;;;;5000672;28;20200;-80
2023/09/16 13:01:19;;;;;;;2.10;2.00;;;;;;;;;;4991303;28;20295;-80
2023/09/16 13:03:47;;;;;;;2.80;2.60;;;;;;;;;;5011800;28;20203;-80
2023/09/16 13:06:15;;;;;;;2.50;2.30;;;;;;;;;;5008146;28;20246;-79
2023/09/16 13:08:43;;;;;;;2.65;2.38;;;;;;;;;;5008891;28;20212;-78
2023/09/16 13:11:10;;;;;;;2.85;2.30;;;;;;;;;;5011815;28;20672;-80
2023/09/16 13:13:38;;;;;;;2.80;2.60;;;;;;;;;;5012106;28;20226;-80
2023/09/16 13:16:07;;;;;;;3.20;2.30;;;;;;;;;;5011638;28;20227;-80
2023/09/16 13:18:38;;;;;;;2.55;2.40;;;;;;;;;;4999733;28;20200;-82
2023/09/16 13:21:06;;;;;;;2.80;2.60;;;;;;;;;;5008760;28;20234;-80
2023/09/16 13:23:34;;;;;;;3.15;2.50;;;;;;;;;;5015824;28;20234;-77
2023/09/16 13:26:11;;;;;;;2.78;2.58;;;;;;;;;;5011829;28;20204;-79
2023/09/16 13:28:39;;;;;;;2.80;2.60;;;;;;;;;;5018363;28;20226;-82
2023/09/16 13:31:06;;;;;;;2.72;2.53;;;;;;;;;;5019268;28;20664;-82
2023/09/16 13:33:44;;;;;;;3.20;2.80;;;;;;;;;;5013931;28;20664;-81
2023/09/16 13:36:11;;;;;;;2.88;2.65;;;;;;;;;;5018859;28;20738;-81
2023/09/16 13:38:38;;;;;;;11.32;2.78;;;;;;;;;;5010780;28;20204;-81
2023/09/16 13:41:06;;;;;;;3.13;2.30;;;;;;;;;;5015673;28;20195;-80
2023/09/16 13:43:35;;;;;;;2.00;1.90;;;;;;;;;;5001344;28;20740;-82
2023/09/16 13:46:03;;;;;;;1.90;1.80;;;;;;;;;;5011524;28;20663;-82
2023/09/16 13:48:31;;;;;;;2.28;2.08;;;;;;;;;;5009197;28;20586;-81
2023/09/16 13:50:58;;;;;;;2.30;2.10;;;;;;;;;;5017972;28;20593;-82
2023/09/16 13:53:26;;;;;;;1.88;1.77;;;;;;;;;;5019065;28;20233;-81
2023/09/16 13:55:55;;;;;;;2.55;2.35;;;;;;;;;;4994430;28;20257;-79
2023/09/16 13:58:23;;;;;;;2.63;2.35;;;;;;;;;;4996597;28;20207;-82
2023/09/16 14:00:50;;;;;;;2.50;2.30;;;;;;;;;;5016859;28;20227;-81
2023/09/16 14:03:18;;;;;;;2.33;2.13;;;;;;;;;;5014114;28;20227;-79
2023/09/16 14:05:45;;;;;;;2.40;2.20;;;;;;;;;;4992982;28;20642;-81
2023/09/16 14:08:12;;;;;;;3.22;2.20;;;;;;;;;;4992941;28;20237;-82
2023/09/16 14:10:39;;;;;;;2.45;2.30;;;;;;;;;;4994110;28;20200;-83
2023/09/16 14:13:07;;;;;;;2.25;2.15;;;;;;;;;;4994492;28;20223;-82
2023/09/16 14:15:35;;;;;;;2.10;2.00;;;;;;;;;;5018628;28;20219;-82
2023/09/16 14:18:05;;;;;;;1.83;1.73;;;;;;;;;;5014832;28;20207;-82
2023/09/16 14:20:33;;;;;;;3.28;1.77;;;;;;;;;;5004950;28;20254;-82
2023/09/16 14:23:01;;;;;;;2.03;1.92;;;;;;;;;;5010320;28;20219;-80
2023/09/16 14:25:29;;;;;;;2.00;1.90;;;;;;;;;;4992243;28;20204;-82
2023/09/16 14:27:56;;;;;;;1.90;1.80;;;;;;;;;;5012878;28;20241;-82
2023/09/16 14:30:24;;;;;;;1.90;1.80;;;;;;;;;;5000968;28;20203;-82
2023/09/16 14:32:51;;;;;;;1.75;1.65;;;;;;;;;;5017724;28;20229;-81